• Join FlightAware (Why Join?)
  • Login
  • US Flag 
06:03AM EST


 

Airport Tracker/Info


-or-


 

Live Flight TrackerFlight Track Log ✈ AAY812 ✈ 22-Jun-2014 ✈ KPIE - KROA

Flight Track Log - Related Links

Times and Time Zones

All times are in EDT time to prevent confusion due to time zone crossing. See the AAY812 flight status page for this flight to view local times or setup timezone preferences in your user account.

Time Position Orientation Groundspeed Altitude Reporting Facility
EDT Latitude Longitude Course Direction KTS MPH feet Rate Location/Type
03:04PM 27.9333 -82.7000 41° Northeast 167 192 1,000  Level Tampa TRACON
03:04PM 27.9500 -82.6833 41° Northeast 171 197 1,800 1,800 Climbing Tampa TRACON
03:05PM 28.0167 -82.6833 360° North 251 289 3,700 1,200 Climbing Tampa TRACON
03:06PM 28.0833 -82.7167 336° Northwest 281 323 4,100 1,920 Climbing Tampa TRACON
03:08PM 28.2250 -82.7278 356° North 276 318 9,400 2,280 Climbing Jacksonville Center
03:09PM 28.3147 -82.7369 355° North 293 337 11,100 1,620 Climbing Jacksonville Center
03:10PM 28.4044 -82.7839 335° Northwest 335 386 12,700 1,980 Climbing Jacksonville Center
03:11PM 28.4839 -82.8761 314° West 359 413 15,100 2,400 Climbing Jacksonville Center
03:12PM 28.5611 -82.9658 314° West 383 441 17,500 1,920 Climbing Jacksonville Center
03:13PM 28.6339 -83.0511 314° West 397 457 19,000 1,620 Climbing Jacksonville Center
03:14PM 28.7194 -83.1458 316° Northwest 420 483 20,800 1,620 Climbing Jacksonville Center
03:15PM 28.8278 -83.2100 333° Northwest 433 498 22,300 1,500 Climbing Jacksonville Center
03:16PM 28.9508 -83.2389 348° North 433 498 23,800 1,440 Climbing Jacksonville Center
03:17PM 29.0822 -83.2536 354° North 443 510 25,200 1,500 Climbing Jacksonville Center
03:18PM 29.2075 -83.2708 353° North 455 524 26,800 1,380 Climbing Jacksonville Center
03:19PM 29.3347 -83.2856 354° North 455 524 28,000 600 Climbing Jacksonville Center
03:20PM 29.4558 -83.3006 354° North 450 518 28,000 180 Level Jacksonville Center
03:21PM 29.5831 -83.3106 356° North 450 518 28,400 720 Climbing Jacksonville Center
03:22PM 29.7083 -83.3111 360° North 445 512 29,500 780 Climbing Jacksonville Center
03:23PM 29.8317 -83.3019 North 439 505 30,000 240 Climbing Jacksonville Center
03:24PM 29.9547 -83.2978 North 439 505 30,000  Level Jacksonville Center
03:25PM 30.0822 -83.2958 North 439 505 30,000  Level Jacksonville Center
03:26PM 30.2053 -83.2964 360° North 439 505 30,000  Level Jacksonville Center
03:27PM 30.3306 -83.2897 North 439 505 30,000 60 Level Jacksonville Center
03:28PM 30.4581 -83.2997 356° North 444 511 30,200 660 Climbing Jacksonville Center
03:29PM 30.5789 -83.3292 348° North 444 511 31,400 900 Climbing Jacksonville Center
03:30PM 30.6978 -83.3589 348° North 444 511 32,000 300 Climbing Jacksonville Center
03:31PM 30.8272 -83.3908 348° North 438 504 32,000  Level Jacksonville Center
03:32PM 30.9483 -83.4183 349° North 433 498 32,000  Level Jacksonville Center
03:33PM 31.0714 -83.4456 349° North 433 498 32,000  Level Jacksonville Center
03:34PM 31.1922 -83.4681 351° North 433 498 32,000 300 Level Jacksonville Center
03:35PM 31.3136 -83.4300 15° North 433 498 32,700 480 Climbing Jacksonville Center
03:36PM 31.4308 -83.3697 24° Northeast 433 498 33,000 60 Climbing Jacksonville Center
03:39PM 31.6836 -83.2408 23° Northeast 450 518 33,000  Level Atlanta Center
03:40PM 31.8019 -83.1761 25° Northeast 455 524 33,000  Level Atlanta Center
03:41PM 31.9186 -83.1189 23° Northeast 455 524 33,000  Level Atlanta Center
03:42PM 32.0350 -83.0589 24° Northeast 455 524 33,000  Level Atlanta Center
03:43PM 32.1514 -82.9964 24° Northeast 455 524 33,000  Level Atlanta Center
03:44PM 32.2697 -82.9408 22° Northeast 455 524 33,000  Level Atlanta Center
03:45PM 32.3861 -82.8903 20° North 455 524 33,000  Level Atlanta Center
03:46PM 32.5067 -82.8394 20° North 450 518 33,000  Level Atlanta Center
03:47PM 32.6336 -82.7808 21° North 445 512 33,000  Level Atlanta Center
03:48PM 32.7519 -82.7272 21° North 445 512 33,000  Level Atlanta Center
03:49PM 32.8703 -82.6761 20° North 445 512 33,000  Level Atlanta Center
03:50PM 32.9908 -82.6222 21° North 450 518 33,000  Level Atlanta Center
03:51PM 33.1092 -82.5708 20° North 450 518 33,000  Level Atlanta Center
03:52PM 33.2297 -82.5189 20° North 450 518 33,000  Level Atlanta Center
03:53PM 33.3500 -82.4647 21° North 450 518 33,000  Level Atlanta Center
03:54PM 33.4661 -82.4128 20° North 455 524 33,000  Level Atlanta Center
03:55PM 33.5867 -82.3581 21° North 455 524 33,000  Level Atlanta Center
03:56PM 33.7111 -82.3058 19° North 455 524 33,000  Level Atlanta Center
03:57PM 33.8125 -82.2511 24° Northeast 455 524 33,000  Level Atlanta Center
03:58PM 33.9308 -82.2011 19° North 448 516 33,000  Level Atlanta Center
03:59PM 34.0469 -82.1483 21° North 448 516 33,000  Level Atlanta Center
04:00PM 34.1631 -82.0981 20° North 442 509 33,000  Level Atlanta Center
04:01PM 34.2789 -82.0453 21° North 442 509 33,000 -240 Level Atlanta Center
04:02PM 34.3992 -81.9894 21° North 448 516 32,600 -720 Descending Atlanta Center
04:03PM 34.5172 -81.9364 20° North 448 516 31,600 -960 Descending Atlanta Center
04:04PM 34.6331 -81.8828 21° North 443 510 30,700 -1,020 Descending Atlanta Center
04:05PM 34.7553 -81.8317 19° North 443 510 29,600 -900 Descending Atlanta Center
04:06PM 34.8711 -81.7781 21° North 443 510 29,000 -300 Descending Atlanta Center
04:07PM 34.9892 -81.7214 21° North 443 510 29,000  Level Atlanta Center
04:08PM 35.1069 -81.6700 20° North 448 516 29,000  Level Atlanta Center
04:09PM 35.2186 -81.6133 23° Northeast 438 504 29,000  Level Atlanta Center
04:10PM 35.3364 -81.5589 21° North 438 504 29,000  Level Atlanta Center
04:11PM 35.4542 -81.5044 21° North 444 511 29,000  Level Atlanta Center
04:12PM 35.5700 -81.4497 21° North 444 511 29,000  Level Atlanta Center
04:13PM 35.6939 -81.3922 21° North 450 518 29,000  Level Atlanta Center
04:14PM 35.8197 -81.3319 21° North 450 518 29,000  Level Atlanta Center
04:15PM 35.9375 -81.2739 22° Northeast 445 512 29,000 -1,020 Level Atlanta Center
04:16PM 36.0531 -81.2161 22° Northeast 445 512 27,000 -2,100 Descending Atlanta Center
04:17PM 36.1706 -81.1606 21° North 445 512 24,900 -2,040 Descending Atlanta Center
04:18PM 36.2756 -81.1078 22° Northeast 432 497 23,000 -1,260 Descending Atlanta Center
04:19PM 36.3828 -81.0550 22° Northeast 421 484 22,400 -1,200 Descending Atlanta Center
04:20PM 36.4919 -81.0019 21° North 416 479 20,700 -2,100 Descending Atlanta Center
04:21PM 36.5928 -80.9411 26° Northeast 411 473 18,300 -2,520 Descending Atlanta Center
04:22PM 36.6694 -80.8425 46° Northeast 393 452 15,700 -2,820 Descending Atlanta Center
04:23PM 36.7378 -80.7489 48° Northeast 379 436 12,700 -2,700 Descending Atlanta Center
04:24PM 36.7961 -80.6714 47° Northeast 359 413 10,400 -1,140 Descending Atlanta Center
04:27PM 36.9683 -80.4714 67° East 279 321 8,400 -780 Descending Washington Center
04:31PM 37.1817 -80.3025 58° Northeast 239 275 5,200 -780 Descending Washington Center
04:35PM 37.2864 -80.0714 60° Northeast 167 192 2,600 -660 Descending Washington Center
04:36PM 37.3167 -79.9667 58° Northeast  Level FlightAware Approximate